sensor_id;sensor_type;location;lat;lon;timestamp;P1;durP1;ratioP1;P2;durP2;ratioP2
25359;SDS011;13311;51.386;0.016;2022-07-12T00:00:32;4.43;;;1.90;;
25359;SDS011;13311;51.386;0.016;2022-07-12T00:05:32;2.72;;;1.52;;
25359;SDS011;13311;51.386;0.016;2022-07-12T00:10:33;2.40;;;1.80;;
25359;SDS011;13311;51.386;0.016;2022-07-12T00:15:34;3.88;;;1.73;;
25359;SDS011;13311;51.386;0.016;2022-07-12T00:20:35;2.78;;;1.80;;
25359;SDS011;13311;51.386;0.016;2022-07-12T00:25:37;2.33;;;1.60;;
25359;SDS011;13311;51.386;0.016;2022-07-12T00:30:38;2.28;;;1.33;;
25359;SDS011;13311;51.386;0.016;2022-07-12T00:35:39;2.58;;;1.83;;
25359;SDS011;13311;51.386;0.016;2022-07-12T00:40:39;4.47;;;1.85;;
25359;SDS011;13311;51.386;0.016;2022-07-12T00:45:40;2.67;;;1.73;;
25359;SDS011;13311;51.386;0.016;2022-07-12T00:50:41;3.60;;;2.00;;
25359;SDS011;13311;51.386;0.016;2022-07-12T00:55:43;2.40;;;1.83;;
25359;SDS011;13311;51.386;0.016;2022-07-12T01:00:44;2.33;;;1.80;;
25359;SDS011;13311;51.386;0.016;2022-07-12T01:05:45;5.03;;;2.17;;
25359;SDS011;13311;51.386;0.016;2022-07-12T01:10:47;3.03;;;1.50;;
25359;SDS011;13311;51.386;0.016;2022-07-12T01:15:49;3.70;;;1.83;;
25359;SDS011;13311;51.386;0.016;2022-07-12T01:20:52;2.92;;;1.83;;
25359;SDS011;13311;51.386;0.016;2022-07-12T01:25:54;3.97;;;1.90;;
25359;SDS011;13311;51.386;0.016;2022-07-12T01:30:54;3.17;;;1.73;;
25359;SDS011;13311;51.386;0.016;2022-07-12T01:35:55;3.20;;;1.65;;
25359;SDS011;13311;51.386;0.016;2022-07-12T01:40:56;2.25;;;1.85;;
25359;SDS011;13311;51.386;0.016;2022-07-12T01:45:58;3.75;;;2.00;;
25359;SDS011;13311;51.386;0.016;2022-07-12T01:50:59;5.05;;;2.28;;
25359;SDS011;13311;51.386;0.016;2022-07-12T01:55:59;6.97;;;1.98;;
25359;SDS011;13311;51.386;0.016;2022-07-12T02:01:00;3.15;;;1.88;;
25359;SDS011;13311;51.386;0.016;2022-07-12T02:06:01;3.95;;;1.88;;
25359;SDS011;13311;51.386;0.016;2022-07-12T02:11:03;5.13;;;2.00;;
25359;SDS011;13311;51.386;0.016;2022-07-12T02:16:04;2.25;;;1.80;;
25359;SDS011;13311;51.386;0.016;2022-07-12T02:21:05;3.53;;;2.50;;
25359;SDS011;13311;51.386;0.016;2022-07-12T02:26:06;2.25;;;1.83;;
25359;SDS011;13311;51.386;0.016;2022-07-12T02:31:06;3.28;;;1.70;;
25359;SDS011;13311;51.386;0.016;2022-07-12T02:36:08;4.78;;;2.33;;
25359;SDS011;13311;51.386;0.016;2022-07-12T02:41:09;3.17;;;2.10;;
25359;SDS011;13311;51.386;0.016;2022-07-12T02:46:10;2.85;;;1.67;;
25359;SDS011;13311;51.386;0.016;2022-07-12T02:51:13;4.32;;;1.80;;
25359;SDS011;13311;51.386;0.016;2022-07-12T02:56:14;2.03;;;1.83;;
25359;SDS011;13311;51.386;0.016;2022-07-12T03:01:15;2.92;;;2.00;;
25359;SDS011;13311;51.386;0.016;2022-07-12T03:06:16;2.38;;;1.92;;
25359;SDS011;13311;51.386;0.016;2022-07-12T03:11:17;3.60;;;2.00;;
25359;SDS011;13311;51.386;0.016;2022-07-12T03:16:18;2.83;;;2.00;;
25359;SDS011;13311;51.386;0.016;2022-07-12T03:21:18;5.15;;;2.00;;
25359;SDS011;13311;51.386;0.016;2022-07-12T03:26:20;3.00;;;1.83;;
25359;SDS011;13311;51.386;0.016;2022-07-12T03:31:21;2.10;;;1.58;;
25359;SDS011;13311;51.386;0.016;2022-07-12T03:36:22;2.78;;;1.70;;
25359;SDS011;13311;51.386;0.016;2022-07-12T03:41:23;1.77;;;1.60;;
25359;SDS011;13311;51.386;0.016;2022-07-12T03:46:24;5.32;;;2.00;;
25359;SDS011;13311;51.386;0.016;2022-07-12T03:51:25;2.20;;;1.45;;
25359;SDS011;13311;51.386;0.016;2022-07-12T03:56:26;4.68;;;1.80;;
25359;SDS011;13311;51.386;0.016;2022-07-12T04:01:46;2.47;;;1.48;;
25359;SDS011;13311;51.386;0.016;2022-07-12T04:06:46;1.60;;;1.42;;
25359;SDS011;13311;51.386;0.016;2022-07-12T04:11:47;1.60;;;1.40;;
25359;SDS011;13311;51.386;0.016;2022-07-12T04:16:49;2.97;;;1.63;;
25359;SDS011;13311;51.386;0.016;2022-07-12T04:21:50;5.90;;;1.90;;
25359;SDS011;13311;51.386;0.016;2022-07-12T04:26:50;4.75;;;2.25;;
25359;SDS011;13311;51.386;0.016;2022-07-12T04:31:51;2.63;;;2.05;;
25359;SDS011;13311;51.386;0.016;2022-07-12T04:36:52;5.13;;;2.88;;
25359;SDS011;13311;51.386;0.016;2022-07-12T04:41:53;5.93;;;3.38;;
25359;SDS011;13311;51.386;0.016;2022-07-12T04:46:54;2.72;;;2.10;;
25359;SDS011;13311;51.386;0.016;2022-07-12T04:51:54;3.70;;;2.15;;
25359;SDS011;13311;51.386;0.016;2022-07-12T04:56:55;2.25;;;1.80;;
25359;SDS011;13311;51.386;0.016;2022-07-12T05:01:56;3.60;;;2.17;;
25359;SDS011;13311;51.386;0.016;2022-07-12T05:06:56;7.63;;;2.22;;
25359;SDS011;13311;51.386;0.016;2022-07-12T05:11:58;6.38;;;2.50;;
25359;SDS011;13311;51.386;0.016;2022-07-12T05:16:59;3.60;;;2.38;;
25359;SDS011;13311;51.386;0.016;2022-07-12T05:21:59;4.70;;;2.28;;
25359;SDS011;13311;51.386;0.016;2022-07-12T05:27:02;7.10;;;2.65;;
25359;SDS011;13311;51.386;0.016;2022-07-12T05:32:04;3.60;;;2.22;;
25359;SDS011;13311;51.386;0.016;2022-07-12T05:37:05;10.25;;;2.10;;
25359;SDS011;13311;51.386;0.016;2022-07-12T05:42:06;3.67;;;2.58;;
25359;SDS011;13311;51.386;0.016;2022-07-12T05:47:07;4.88;;;2.30;;
25359;SDS011;13311;51.386;0.016;2022-07-12T05:52:07;4.57;;;2.25;;
25359;SDS011;13311;51.386;0.016;2022-07-12T05:57:27;7.43;;;2.85;;
25359;SDS011;13311;51.386;0.016;2022-07-12T06:02:28;3.45;;;2.45;;
25359;SDS011;13311;51.386;0.016;2022-07-12T06:07:28;7.50;;;2.70;;
25359;SDS011;13311;51.386;0.016;2022-07-12T06:12:29;7.60;;;2.42;;
25359;SDS011;13311;51.386;0.016;2022-07-12T06:17:30;5.55;;;2.30;;
25359;SDS011;13311;51.386;0.016;2022-07-12T06:22:31;6.75;;;1.95;;
25359;SDS011;13311;51.386;0.016;2022-07-12T06:27:31;6.28;;;2.30;;
25359;SDS011;13311;51.386;0.016;2022-07-12T06:32:32;6.05;;;2.50;;
25359;SDS011;13311;51.386;0.016;2022-07-12T06:37:33;3.35;;;1.98;;
25359;SDS011;13311;51.386;0.016;2022-07-12T06:42:34;2.72;;;2.13;;
25359;SDS011;13311;51.386;0.016;2022-07-12T06:47:36;5.18;;;1.95;;
25359;SDS011;13311;51.386;0.016;2022-07-12T06:52:37;4.05;;;2.03;;
25359;SDS011;13311;51.386;0.016;2022-07-12T06:57:37;2.42;;;1.60;;
25359;SDS011;13311;51.386;0.016;2022-07-12T07:02:38;2.45;;;1.35;;
25359;SDS011;13311;51.386;0.016;2022-07-12T07:07:40;2.25;;;1.17;;
25359;SDS011;13311;51.386;0.016;2022-07-12T07:12:40;5.28;;;1.85;;
25359;SDS011;13311;51.386;0.016;2022-07-12T07:17:42;1.75;;;1.30;;
25359;SDS011;13311;51.386;0.016;2022-07-12T07:22:43;2.38;;;1.13;;
25359;SDS011;13311;51.386;0.016;2022-07-12T07:27:44;2.63;;;1.30;;
25359;SDS011;13311;51.386;0.016;2022-07-12T07:32:44;3.60;;;1.55;;
25359;SDS011;13311;51.386;0.016;2022-07-12T07:37:45;6.85;;;1.50;;
25359;SDS011;13311;51.386;0.016;2022-07-12T07:42:46;3.05;;;1.52;;
25359;SDS011;13311;51.386;0.016;2022-07-12T07:47:48;2.83;;;1.35;;
25359;SDS011;13311;51.386;0.016;2022-07-12T07:52:49;3.10;;;1.20;;
25359;SDS011;13311;51.386;0.016;2022-07-12T07:57:51;2.40;;;1.83;;
25359;SDS011;13311;51.386;0.016;2022-07-12T08:02:53;3.60;;;1.30;;
25359;SDS011;13311;51.386;0.016;2022-07-12T08:07:55;4.95;;;1.20;;
25359;SDS011;13311;51.386;0.016;2022-07-12T08:12:57;2.28;;;1.08;;
25359;SDS011;13311;51.386;0.016;2022-07-12T08:17:58;1.52;;;0.93;;
25359;SDS011;13311;51.386;0.016;2022-07-12T08:22:59;5.20;;;1.40;;
25359;SDS011;13311;51.386;0.016;2022-07-12T08:27:59;2.88;;;1.65;;
25359;SDS011;13311;51.386;0.016;2022-07-12T08:33:00;4.40;;;1.35;;
25359;SDS011;13311;51.386;0.016;2022-07-12T08:38:01;3.47;;;1.10;;
25359;SDS011;13311;51.386;0.016;2022-07-12T08:43:02;1.88;;;1.05;;
25359;SDS011;13311;51.386;0.016;2022-07-12T08:48:03;3.60;;;0.98;;
25359;SDS011;13311;51.386;0.016;2022-07-12T08:53:09;3.78;;;1.17;;
25359;SDS011;13311;51.386;0.016;2022-07-12T08:58:15;3.75;;;1.13;;
25359;SDS011;13311;51.386;0.016;2022-07-12T09:03:17;1.67;;;1.05;;
25359;SDS011;13311;51.386;0.016;2022-07-12T09:13:45;1.58;;;1.00;;
25359;SDS011;13311;51.386;0.016;2022-07-12T09:24:18;6.05;;;1.10;;
25359;SDS011;13311;51.386;0.016;2022-07-12T09:29:20;1.55;;;1.33;;
25359;SDS011;13311;51.386;0.016;2022-07-12T09:34:21;4.88;;;1.40;;
25359;SDS011;13311;51.386;0.016;2022-07-12T09:39:40;1.67;;;1.13;;
25359;SDS011;13311;51.386;0.016;2022-07-12T09:44:42;1.92;;;0.95;;
25359;SDS011;13311;51.386;0.016;2022-07-12T09:49:43;4.00;;;1.23;;
25359;SDS011;13311;51.386;0.016;2022-07-12T09:54:45;1.85;;;0.80;;
25359;SDS011;13311;51.386;0.016;2022-07-12T09:59:50;5.63;;;1.00;;
25359;SDS011;13311;51.386;0.016;2022-07-12T10:04:52;3.30;;;1.80;;
25359;SDS011;13311;51.386;0.016;2022-07-12T10:09:53;3.75;;;1.98;;
25359;SDS011;13311;51.386;0.016;2022-07-12T10:14:57;3.58;;;1.65;;
25359;SDS011;13311;51.386;0.016;2022-07-12T10:20:21;1.38;;;1.15;;
25359;SDS011;13311;51.386;0.016;2022-07-12T10:25:29;2.33;;;1.17;;
25359;SDS011;13311;51.386;0.016;2022-07-12T10:30:40;2.40;;;1.60;;
25359;SDS011;13311;51.386;0.016;2022-07-12T10:36:05;2.72;;;1.23;;
25359;SDS011;13311;51.386;0.016;2022-07-12T10:41:17;2.28;;;1.45;;
25359;SDS011;13311;51.386;0.016;2022-07-12T10:46:21;4.75;;;1.45;;
25359;SDS011;13311;51.386;0.016;2022-07-12T10:51:25;4.68;;;1.38;;
25359;SDS011;13311;51.386;0.016;2022-07-12T10:56:26;6.93;;;2.38;;
25359;SDS011;13311;51.386;0.016;2022-07-12T11:01:28;3.13;;;1.90;;
25359;SDS011;13311;51.386;0.016;2022-07-12T11:06:33;4.28;;;1.60;;
25359;SDS011;13311;51.386;0.016;2022-07-12T11:16:45;5.18;;;1.75;;
25359;SDS011;13311;51.386;0.016;2022-07-12T11:21:48;3.65;;;1.25;;
25359;SDS011;13311;51.386;0.016;2022-07-12T11:26:55;3.92;;;1.42;;
25359;SDS011;13311;51.386;0.016;2022-07-12T11:32:00;3.60;;;1.85;;
25359;SDS011;13311;51.386;0.016;2022-07-12T11:37:04;5.60;;;1.50;;
25359;SDS011;13311;51.386;0.016;2022-07-12T11:42:05;1.38;;;1.10;;
25359;SDS011;13311;51.386;0.016;2022-07-12T11:47:07;1.70;;;1.05;;
25359;SDS011;13311;51.386;0.016;2022-07-12T11:52:08;4.13;;;1.15;;
25359;SDS011;13311;51.386;0.016;2022-07-12T11:57:12;4.80;;;1.20;;
25359;SDS011;13311;51.386;0.016;2022-07-12T12:02:14;2.53;;;1.30;;
25359;SDS011;13311;51.386;0.016;2022-07-12T12:07:17;9.75;;;1.30;;
25359;SDS011;13311;51.386;0.016;2022-07-12T12:12:21;1.08;;;0.93;;
25359;SDS011;13311;51.386;0.016;2022-07-12T12:17:22;3.08;;;1.10;;
25359;SDS011;13311;51.386;0.016;2022-07-12T12:22:26;7.38;;;1.70;;
25359;SDS011;13311;51.386;0.016;2022-07-12T12:27:40;2.05;;;1.27;;
25359;SDS011;13311;51.386;0.016;2022-07-12T12:32:46;1.90;;;1.00;;
25359;SDS011;13311;51.386;0.016;2022-07-12T12:37:56;2.22;;;1.40;;
25359;SDS011;13311;51.386;0.016;2022-07-12T12:43:18;2.13;;;1.00;;
25359;SDS011;13311;51.386;0.016;2022-07-12T12:48:24;1.25;;;0.93;;
25359;SDS011;13311;51.386;0.016;2022-07-12T12:53:33;4.13;;;1.00;;
25359;SDS011;13311;51.386;0.016;2022-07-12T12:58:37;4.15;;;1.23;;
25359;SDS011;13311;51.386;0.016;2022-07-12T13:03:38;4.22;;;1.80;;
25359;SDS011;13311;51.386;0.016;2022-07-12T13:08:39;5.03;;;1.88;;
25359;SDS011;13311;51.386;0.016;2022-07-12T13:13:40;2.80;;;1.40;;
25359;SDS011;13311;51.386;0.016;2022-07-12T13:18:41;1.17;;;0.90;;
25359;SDS011;13311;51.386;0.016;2022-07-12T13:23:42;1.00;;;0.80;;
25359;SDS011;13311;51.386;0.016;2022-07-12T13:28:44;1.75;;;1.00;;
25359;SDS011;13311;51.386;0.016;2022-07-12T13:33:44;1.83;;;0.95;;
25359;SDS011;13311;51.386;0.016;2022-07-12T13:38:46;1.02;;;0.90;;
25359;SDS011;13311;51.386;0.016;2022-07-12T13:43:47;5.03;;;1.23;;
25359;SDS011;13311;51.386;0.016;2022-07-12T13:48:47;1.35;;;0.95;;
25359;SDS011;13311;51.386;0.016;2022-07-12T13:53:48;2.17;;;1.15;;
25359;SDS011;13311;51.386;0.016;2022-07-12T13:58:49;3.90;;;1.17;;
25359;SDS011;13311;51.386;0.016;2022-07-12T14:03:50;3.88;;;1.02;;
25359;SDS011;13311;51.386;0.016;2022-07-12T14:08:51;7.15;;;1.23;;
25359;SDS011;13311;51.386;0.016;2022-07-12T14:13:52;1.20;;;0.80;;
25359;SDS011;13311;51.386;0.016;2022-07-12T14:18:53;6.20;;;1.23;;
25359;SDS011;13311;51.386;0.016;2022-07-12T14:23:54;1.52;;;0.90;;
25359;SDS011;13311;51.386;0.016;2022-07-12T14:28:54;4.15;;;1.23;;
25359;SDS011;13311;51.386;0.016;2022-07-12T14:33:55;3.42;;;1.35;;
25359;SDS011;13311;51.386;0.016;2022-07-12T14:38:56;4.22;;;1.15;;
25359;SDS011;13311;51.386;0.016;2022-07-12T14:43:57;3.22;;;1.63;;
25359;SDS011;13311;51.386;0.016;2022-07-12T14:48:57;1.83;;;0.85;;
25359;SDS011;13311;51.386;0.016;2022-07-12T14:53:58;1.63;;;0.80;;
25359;SDS011;13311;51.386;0.016;2022-07-12T14:58:59;1.67;;;0.95;;
25359;SDS011;13311;51.386;0.016;2022-07-12T15:04:00;1.40;;;0.70;;
25359;SDS011;13311;51.386;0.016;2022-07-12T15:09:01;2.35;;;1.02;;
25359;SDS011;13311;51.386;0.016;2022-07-12T15:14:02;1.38;;;0.85;;
25359;SDS011;13311;51.386;0.016;2022-07-12T15:19:03;3.78;;;0.98;;
25359;SDS011;13311;51.386;0.016;2022-07-12T15:24:04;1.38;;;1.10;;
25359;SDS011;13311;51.386;0.016;2022-07-12T15:29:06;4.40;;;1.38;;
25359;SDS011;13311;51.386;0.016;2022-07-12T15:34:07;3.83;;;1.00;;
25359;SDS011;13311;51.386;0.016;2022-07-12T15:39:08;2.45;;;1.38;;
25359;SDS011;13311;51.386;0.016;2022-07-12T15:44:09;2.38;;;1.77;;
25359;SDS011;13311;51.386;0.016;2022-07-12T15:49:10;2.65;;;1.17;;
25359;SDS011;13311;51.386;0.016;2022-07-12T15:54:11;1.33;;;0.88;;
25359;SDS011;13311;51.386;0.016;2022-07-12T15:59:12;1.83;;;1.00;;
25359;SDS011;13311;51.386;0.016;2022-07-12T16:04:14;2.67;;;1.40;;
25359;SDS011;13311;51.386;0.016;2022-07-12T16:09:15;3.38;;;1.20;;
25359;SDS011;13311;51.386;0.016;2022-07-12T16:14:16;2.90;;;1.20;;
25359;SDS011;13311;51.386;0.016;2022-07-12T16:19:17;1.55;;;0.90;;
25359;SDS011;13311;51.386;0.016;2022-07-12T16:24:18;2.60;;;1.00;;
25359;SDS011;13311;51.386;0.016;2022-07-12T16:29:19;3.35;;;1.10;;
25359;SDS011;13311;51.386;0.016;2022-07-12T16:34:19;5.40;;;1.45;;
25359;SDS011;13311;51.386;0.016;2022-07-12T16:39:20;7.78;;;1.98;;
25359;SDS011;13311;51.386;0.016;2022-07-12T16:44:21;3.10;;;1.60;;
25359;SDS011;13311;51.386;0.016;2022-07-12T16:49:22;4.93;;;1.50;;
25359;SDS011;13311;51.386;0.016;2022-07-12T16:54:22;3.60;;;1.52;;
25359;SDS011;13311;51.386;0.016;2022-07-12T16:59:24;6.97;;;1.38;;
25359;SDS011;13311;51.386;0.016;2022-07-12T17:04:25;4.50;;;1.88;;
25359;SDS011;13311;51.386;0.016;2022-07-12T17:09:25;1.50;;;0.93;;
25359;SDS011;13311;51.386;0.016;2022-07-12T17:14:28;2.13;;;1.80;;
25359;SDS011;13311;51.386;0.016;2022-07-12T17:19:29;2.17;;;1.25;;
25359;SDS011;13311;51.386;0.016;2022-07-12T17:24:29;3.35;;;1.42;;
25359;SDS011;13311;51.386;0.016;2022-07-12T17:29:30;3.30;;;1.40;;
25359;SDS011;13311;51.386;0.016;2022-07-12T17:34:31;5.15;;;1.88;;
25359;SDS011;13311;51.386;0.016;2022-07-12T17:39:32;2.15;;;1.30;;
25359;SDS011;13311;51.386;0.016;2022-07-12T17:44:32;3.60;;;1.50;;
25359;SDS011;13311;51.386;0.016;2022-07-12T17:49:33;3.38;;;1.45;;
25359;SDS011;13311;51.386;0.016;2022-07-12T17:54:34;4.20;;;2.08;;
25359;SDS011;13311;51.386;0.016;2022-07-12T17:59:35;6.35;;;1.63;;
25359;SDS011;13311;51.386;0.016;2022-07-12T18:04:36;3.70;;;1.60;;
25359;SDS011;13311;51.386;0.016;2022-07-12T18:09:36;2.78;;;1.58;;
25359;SDS011;13311;51.386;0.016;2022-07-12T18:14:37;6.05;;;1.45;;
25359;SDS011;13311;51.386;0.016;2022-07-12T18:19:44;3.57;;;1.50;;
25359;SDS011;13311;51.386;0.016;2022-07-12T18:24:45;2.70;;;1.50;;
25359;SDS011;13311;51.386;0.016;2022-07-12T18:29:45;3.47;;;1.70;;
25359;SDS011;13311;51.386;0.016;2022-07-12T18:34:46;4.35;;;1.85;;
25359;SDS011;13311;51.386;0.016;2022-07-12T18:39:47;5.97;;;2.15;;
25359;SDS011;13311;51.386;0.016;2022-07-12T18:44:48;8.23;;;2.42;;
25359;SDS011;13311;51.386;0.016;2022-07-12T18:49:49;2.28;;;1.70;;
25359;SDS011;13311;51.386;0.016;2022-07-12T18:54:50;3.45;;;1.70;;
25359;SDS011;13311;51.386;0.016;2022-07-12T18:59:51;2.90;;;1.67;;
25359;SDS011;13311;51.386;0.016;2022-07-12T19:04:52;9.30;;;2.20;;
25359;SDS011;13311;51.386;0.016;2022-07-12T19:09:53;3.00;;;1.85;;
25359;SDS011;13311;51.386;0.016;2022-07-12T19:14:53;5.25;;;1.90;;
25359;SDS011;13311;51.386;0.016;2022-07-12T19:19:54;3.63;;;1.73;;
25359;SDS011;13311;51.386;0.016;2022-07-12T19:24:55;3.17;;;2.03;;
25359;SDS011;13311;51.386;0.016;2022-07-12T19:29:56;4.57;;;1.65;;
25359;SDS011;13311;51.386;0.016;2022-07-12T19:34:57;2.17;;;1.50;;
25359;SDS011;13311;51.386;0.016;2022-07-12T19:39:58;7.38;;;2.25;;
25359;SDS011;13311;51.386;0.016;2022-07-12T19:44:59;2.65;;;1.70;;
25359;SDS011;13311;51.386;0.016;2022-07-12T19:50:00;5.78;;;2.00;;
25359;SDS011;13311;51.386;0.016;2022-07-12T19:55:01;2.20;;;1.33;;
25359;SDS011;13311;51.386;0.016;2022-07-12T20:00:03;4.38;;;1.58;;
25359;SDS011;13311;51.386;0.016;2022-07-12T20:05:06;2.78;;;1.67;;
25359;SDS011;13311;51.386;0.016;2022-07-12T20:10:07;6.82;;;1.70;;
25359;SDS011;13311;51.386;0.016;2022-07-12T20:15:09;2.45;;;1.60;;
25359;SDS011;13311;51.386;0.016;2022-07-12T20:20:10;2.72;;;2.10;;
25359;SDS011;13311;51.386;0.016;2022-07-12T20:25:12;3.20;;;1.60;;
25359;SDS011;13311;51.386;0.016;2022-07-12T20:30:13;4.53;;;1.55;;
25359;SDS011;13311;51.386;0.016;2022-07-12T20:35:13;6.07;;;1.90;;
25359;SDS011;13311;51.386;0.016;2022-07-12T20:40:14;2.65;;;1.70;;
25359;SDS011;13311;51.386;0.016;2022-07-12T20:45:15;6.32;;;1.98;;
25359;SDS011;13311;51.386;0.016;2022-07-12T20:50:16;5.63;;;1.90;;
25359;SDS011;13311;51.386;0.016;2022-07-12T20:55:17;5.28;;;1.90;;
25359;SDS011;13311;51.386;0.016;2022-07-12T21:00:18;3.40;;;1.88;;
25359;SDS011;13311;51.386;0.016;2022-07-12T21:05:18;5.68;;;2.35;;
25359;SDS011;13311;51.386;0.016;2022-07-12T21:10:19;6.38;;;2.40;;
25359;SDS011;13311;51.386;0.016;2022-07-12T21:15:20;3.65;;;1.50;;
25359;SDS011;13311;51.386;0.016;2022-07-12T21:20:21;3.28;;;2.17;;
25359;SDS011;13311;51.386;0.016;2022-07-12T21:25:22;5.07;;;2.28;;
25359;SDS011;13311;51.386;0.016;2022-07-12T21:30:23;2.97;;;1.83;;
25359;SDS011;13311;51.386;0.016;2022-07-12T21:35:24;7.10;;;2.20;;
25359;SDS011;13311;51.386;0.016;2022-07-12T21:40:26;5.00;;;1.88;;
25359;SDS011;13311;51.386;0.016;2022-07-12T21:45:27;2.67;;;1.70;;
25359;SDS011;13311;51.386;0.016;2022-07-12T21:50:28;3.17;;;1.85;;
25359;SDS011;13311;51.386;0.016;2022-07-12T21:55:29;2.28;;;1.75;;
25359;SDS011;13311;51.386;0.016;2022-07-12T22:00:30;1.98;;;1.50;;
25359;SDS011;13311;51.386;0.016;2022-07-12T22:05:31;3.45;;;1.98;;
25359;SDS011;13311;51.386;0.016;2022-07-12T22:10:31;2.47;;;1.90;;
25359;SDS011;13311;51.386;0.016;2022-07-12T22:15:32;4.38;;;1.92;;
25359;SDS011;13311;51.386;0.016;2022-07-12T22:20:33;2.58;;;1.80;;
25359;SDS011;13311;51.386;0.016;2022-07-12T22:25:34;8.68;;;2.40;;
25359;SDS011;13311;51.386;0.016;2022-07-12T22:30:35;2.28;;;1.60;;
25359;SDS011;13311;51.386;0.016;2022-07-12T22:35:35;2.80;;;1.83;;
25359;SDS011;13311;51.386;0.016;2022-07-12T22:40:36;2.97;;;2.15;;
25359;SDS011;13311;51.386;0.016;2022-07-12T22:45:38;4.55;;;2.38;;
25359;SDS011;13311;51.386;0.016;2022-07-12T22:50:38;3.53;;;1.90;;
25359;SDS011;13311;51.386;0.016;2022-07-12T22:55:58;3.33;;;1.92;;
25359;SDS011;13311;51.386;0.016;2022-07-12T23:00:59;4.30;;;2.88;;
25359;SDS011;13311;51.386;0.016;2022-07-12T23:06:00;2.08;;;1.83;;
25359;SDS011;13311;51.386;0.016;2022-07-12T23:11:01;6.30;;;2.08;;
25359;SDS011;13311;51.386;0.016;2022-07-12T23:16:01;3.78;;;2.15;;
25359;SDS011;13311;51.386;0.016;2022-07-12T23:21:02;2.40;;;1.52;;
25359;SDS011;13311;51.386;0.016;2022-07-12T23:26:04;7.07;;;2.00;;
25359;SDS011;13311;51.386;0.016;2022-07-12T23:31:06;5.88;;;1.92;;
25359;SDS011;13311;51.386;0.016;2022-07-12T23:36:07;4.35;;;2.20;;
25359;SDS011;13311;51.386;0.016;2022-07-12T23:41:08;6.72;;;2.00;;
25359;SDS011;13311;51.386;0.016;2022-07-12T23:46:09;4.97;;;1.90;;
25359;SDS011;13311;51.386;0.016;2022-07-12T23:51:10;3.90;;;2.30;;
25359;SDS011;13311;51.386;0.016;2022-07-12T23:56:11;2.47;;;1.60;;
